KCKV/CKV METAR and TAF weather

Enter ICAO airport designator
Station Type Date Time Source
KCKV METAR 2023/02/05 12:52 UTC NOAA

KCKV 051252Z AUTO 19011KT 10SM CLR 07/M02 A3016 RMK AO2 SLP216 T00671017 $


Station Type Date Time Source
KCKV Decoded METAR 2023/02/05 12:52 UTC NOAA

CLARKSVILLE OUTLAW FIELD, TN, United States (KCKV) 36-37N 87-25W 165M
Feb 05, 2023 - 07:52 AM EST / 2023.02.05 1252 UTC
Wind: from the S (190 degrees) at 13 MPH (11 KT):0
Visibility: 10 mile(s):0
Sky conditions: clear
Temperature: 44.1 F (6.7 C)
Dew Point: 28.9 F (-1.7 C)
Relative Humidity: 54%
Pressure (altimeter): 30.16 in. Hg (1021 hPa)
ob: KCKV 051252Z AUTO 19011KT 10SM CLR 07/M02 A3016 RMK AO2 SLP216 T00671017
cycle: 13

Station Type Date Time Source
KCKV TAF 2023/02/05 12:22 UTC NOAA

TAF KCKV 051120Z 0512/0612 21013G19KT P6SM SCT050 BKN250
FM060300 26003KT P6SM BKN250
FM060600 VRB03KT P6SM SCT250

Example: see airport list